首页
METAR-TAF:

METAR-TAF

机场 :

Mason City Municipal Airport

麦逊城, 艾奥瓦州, 美国

纬度: 43-09-28N, 经度: 093-19-53W, 海拔: 370米

当前天气观测

该预报发布于50分钟前的00:53 UTC
风速10节,风向南转西南
温度 29°C
湿度 66%
气压 1007 hPa
能見度: 16.1公里
多云层高于4800英尺

METAR: KMCW 170053Z AUTO 20010KT 10SM BKN048 29/22 A2973 RMK AO2 SLP054 T02890222

时间: 20:43 (01:43 UTC)

预报

该预报发布于2小时和23分钟前的23:20 UTC
预报有效从17日的 00点(UTC)到 17日的 24点(UTC)
风速14节,风向南转西南,有时为21节阵风
能見度: 10公里
少量云层高于4500英尺
从 17日的 0100点(UTC)
风速10节,风向,有时为16节阵风
能見度: 10公里
散云层高于4500英尺
从 17日的 0400点(UTC)
风速8节,风向
能見度: 10公里
散云层高于4000英尺, 积雨云.
附近有雷暴
从 17日的 1400点(UTC)
风速11节,风向,有时为17节阵风
能見度: 10公里
多云层高于3000英尺
从 17日的 1700点(UTC)
风速15节,风向,有时为22节阵风
能見度: 10公里
多云层高于4000英尺

TAF: KMCW 162320Z 1700/1724 20014G21KT P6SM FEW045 FM170100 18010G16KT P6SM SCT045 FM170400 17008KT P6SM VCTS SCT040CB FM171400 17011G17KT P6SM BKN030 FM171700 18015G22KT P6SM BKN040

超过4000个机场的气象观测和天气预报(METAR&TAF报告)。

可查询的气象台以黄色和红色小点在地图上表示。

将鼠标移到小点上方,可查看气象台名称。

然后点击查看天气观测和预报。

如需切换地图:点击带黑十字的绿色按钮放大地图;点击带横线的绿色按钮缩小地图;或者点击绿色箭头查看邻近地区的地图。


METAR-TAF: